sensor_id;sensor_type;location;lat;lon;timestamp;pressure;altitude;pressure_sealevel;temperature;humidity
62632;BME280;48703;51.248;-0.546;2023-01-29T00:01:30;102479;;;4.22;85.77
62632;BME280;48703;51.248;-0.546;2023-01-29T00:04:32;102467;;;4.21;85.75
62632;BME280;48703;51.248;-0.546;2023-01-29T00:07:34;102469;;;4.20;85.75
62632;BME280;48703;51.248;-0.546;2023-01-29T00:10:36;102464;;;4.20;85.67
62632;BME280;48703;51.248;-0.546;2023-01-29T00:13:38;102462;;;4.21;85.58
62632;BME280;48703;51.248;-0.546;2023-01-29T00:16:40;102464;;;4.19;85.71
62632;BME280;48703;51.248;-0.546;2023-01-29T00:19:41;102466;;;4.16;85.80
62632;BME280;48703;51.248;-0.546;2023-01-29T00:22:43;102468;;;4.15;85.77
62632;BME280;48703;51.248;-0.546;2023-01-29T00:25:45;102473;;;4.13;85.78
62632;BME280;48703;51.248;-0.546;2023-01-29T00:28:47;102474;;;4.13;85.91
62632;BME280;48703;51.248;-0.546;2023-01-29T00:31:49;102476;;;4.12;85.99
62632;BME280;48703;51.248;-0.546;2023-01-29T00:34:51;102480;;;4.12;85.92
62632;BME280;48703;51.248;-0.546;2023-01-29T00:37:53;102479;;;4.14;85.83
62632;BME280;48703;51.248;-0.546;2023-01-29T00:40:55;102470;;;4.12;85.93
62632;BME280;48703;51.248;-0.546;2023-01-29T00:43:57;102463;;;4.11;85.92
62632;BME280;48703;51.248;-0.546;2023-01-29T00:46:59;102465;;;4.12;86.10
62632;BME280;48703;51.248;-0.546;2023-01-29T00:50:01;102463;;;4.12;85.96
62632;BME280;48703;51.248;-0.546;2023-01-29T00:53:02;102464;;;4.11;85.94
62632;BME280;48703;51.248;-0.546;2023-01-29T00:56:04;102464;;;4.09;86.36
62632;BME280;48703;51.248;-0.546;2023-01-29T00:59:06;102462;;;4.08;86.23
62632;BME280;48703;51.248;-0.546;2023-01-29T01:02:08;102463;;;4.09;86.30
62632;BME280;48703;51.248;-0.546;2023-01-29T01:05:11;102461;;;4.11;86.22
62632;BME280;48703;51.248;-0.546;2023-01-29T01:08:12;102462;;;4.11;86.31
62632;BME280;48703;51.248;-0.546;2023-01-29T01:11:14;102458;;;4.10;86.44
62632;BME280;48703;51.248;-0.546;2023-01-29T01:14:16;102457;;;4.10;86.39
62632;BME280;48703;51.248;-0.546;2023-01-29T01:17:17;102451;;;4.11;86.54
62632;BME280;48703;51.248;-0.546;2023-01-29T01:20:19;102440;;;4.11;86.44
62632;BME280;48703;51.248;-0.546;2023-01-29T01:23:21;102432;;;4.11;86.46
62632;BME280;48703;51.248;-0.546;2023-01-29T01:26:23;102426;;;4.11;86.28
62632;BME280;48703;51.248;-0.546;2023-01-29T01:29:25;102431;;;4.11;86.48
62632;BME280;48703;51.248;-0.546;2023-01-29T01:32:27;102433;;;4.11;86.48
62632;BME280;48703;51.248;-0.546;2023-01-29T01:35:29;102432;;;4.10;86.50
62632;BME280;48703;51.248;-0.546;2023-01-29T01:38:31;102427;;;4.10;86.55
62632;BME280;48703;51.248;-0.546;2023-01-29T01:41:33;102424;;;4.11;86.56
62632;BME280;48703;51.248;-0.546;2023-01-29T01:44:52;102427;;;4.10;86.66
62632;BME280;48703;51.248;-0.546;2023-01-29T01:47:38;102432;;;4.09;86.61
62632;BME280;48703;51.248;-0.546;2023-01-29T01:50:39;102426;;;4.09;86.66
62632;BME280;48703;51.248;-0.546;2023-01-29T01:53:41;102424;;;4.09;86.72
62632;BME280;48703;51.248;-0.546;2023-01-29T01:56:43;102417;;;4.09;86.77
62632;BME280;48703;51.248;-0.546;2023-01-29T01:59:45;102417;;;4.09;86.81
62632;BME280;48703;51.248;-0.546;2023-01-29T02:02:46;102414;;;4.10;86.76
62632;BME280;48703;51.248;-0.546;2023-01-29T02:05:48;102419;;;4.10;86.90
62632;BME280;48703;51.248;-0.546;2023-01-29T02:08:51;102423;;;4.08;86.88
62632;BME280;48703;51.248;-0.546;2023-01-29T02:11:52;102427;;;4.08;86.87
62632;BME280;48703;51.248;-0.546;2023-01-29T02:14:53;102435;;;4.06;86.98
62632;BME280;48703;51.248;-0.546;2023-01-29T02:17:55;102441;;;4.06;87.04
62632;BME280;48703;51.248;-0.546;2023-01-29T02:21:04;102437;;;4.05;87.03
62632;BME280;48703;51.248;-0.546;2023-01-29T02:24:37;102436;;;4.07;87.00
62632;BME280;48703;51.248;-0.546;2023-01-29T02:27:02;102434;;;4.07;87.02
62632;BME280;48703;51.248;-0.546;2023-01-29T02:30:04;102431;;;4.06;87.10
62632;BME280;48703;51.248;-0.546;2023-01-29T02:33:07;102425;;;4.06;87.17
62632;BME280;48703;51.248;-0.546;2023-01-29T02:36:10;102426;;;4.08;87.12
62632;BME280;48703;51.248;-0.546;2023-01-29T02:39:12;102422;;;4.08;86.97
62632;BME280;48703;51.248;-0.546;2023-01-29T02:42:12;102423;;;4.09;87.08
62632;BME280;48703;51.248;-0.546;2023-01-29T02:45:13;102423;;;4.08;87.20
62632;BME280;48703;51.248;-0.546;2023-01-29T02:48:16;102424;;;4.09;87.24
62632;BME280;48703;51.248;-0.546;2023-01-29T02:51:17;102422;;;4.09;87.21
62632;BME280;48703;51.248;-0.546;2023-01-29T02:54:19;102424;;;4.09;87.25
62632;BME280;48703;51.248;-0.546;2023-01-29T02:57:21;102431;;;4.09;87.41
62632;BME280;48703;51.248;-0.546;2023-01-29T03:00:22;102431;;;4.08;87.37
62632;BME280;48703;51.248;-0.546;2023-01-29T03:03:24;102432;;;4.08;87.26
62632;BME280;48703;51.248;-0.546;2023-01-29T03:06:27;102427;;;4.09;87.16
62632;BME280;48703;51.248;-0.546;2023-01-29T03:09:30;102426;;;4.10;87.20
62632;BME280;48703;51.248;-0.546;2023-01-29T03:12:30;102420;;;4.10;87.62
62632;BME280;48703;51.248;-0.546;2023-01-29T03:15:33;102414;;;4.09;87.62
62632;BME280;48703;51.248;-0.546;2023-01-29T03:18:35;102408;;;4.10;87.49
62632;BME280;48703;51.248;-0.546;2023-01-29T03:21:37;102410;;;4.12;87.61
62632;BME280;48703;51.248;-0.546;2023-01-29T03:24:38;102407;;;4.12;87.60
62632;BME280;48703;51.248;-0.546;2023-01-29T03:27:39;102404;;;4.12;87.82
62632;BME280;48703;51.248;-0.546;2023-01-29T03:30:42;102399;;;4.12;87.65
62632;BME280;48703;51.248;-0.546;2023-01-29T03:33:44;102393;;;4.13;88.18
62632;BME280;48703;51.248;-0.546;2023-01-29T03:36:46;102383;;;4.13;87.83
62632;BME280;48703;51.248;-0.546;2023-01-29T03:39:47;102380;;;4.14;87.73
62632;BME280;48703;51.248;-0.546;2023-01-29T03:42:51;102380;;;4.14;87.65
62632;BME280;48703;51.248;-0.546;2023-01-29T03:45:53;102376;;;4.14;87.74
62632;BME280;48703;51.248;-0.546;2023-01-29T03:48:53;102371;;;4.13;87.83
62632;BME280;48703;51.248;-0.546;2023-01-29T03:51:56;102368;;;4.13;88.04
62632;BME280;48703;51.248;-0.546;2023-01-29T03:54:57;102368;;;4.14;88.02
62632;BME280;48703;51.248;-0.546;2023-01-29T03:57:59;102369;;;4.15;88.04
62632;BME280;48703;51.248;-0.546;2023-01-29T04:01:01;102371;;;4.16;87.99
62632;BME280;48703;51.248;-0.546;2023-01-29T04:04:03;102374;;;4.16;88.09
62632;BME280;48703;51.248;-0.546;2023-01-29T04:07:05;102375;;;4.17;87.94
62632;BME280;48703;51.248;-0.546;2023-01-29T04:10:07;102375;;;4.17;87.87
62632;BME280;48703;51.248;-0.546;2023-01-29T04:13:08;102370;;;4.16;87.89
62632;BME280;48703;51.248;-0.546;2023-01-29T04:16:11;102371;;;4.16;88.03
62632;BME280;48703;51.248;-0.546;2023-01-29T04:19:11;102372;;;4.16;88.00
62632;BME280;48703;51.248;-0.546;2023-01-29T04:22:14;102368;;;4.15;88.19
62632;BME280;48703;51.248;-0.546;2023-01-29T04:25:16;102365;;;4.17;88.04
62632;BME280;48703;51.248;-0.546;2023-01-29T04:28:18;102370;;;4.17;87.98
62632;BME280;48703;51.248;-0.546;2023-01-29T04:31:19;102368;;;4.16;87.96
62632;BME280;48703;51.248;-0.546;2023-01-29T04:34:22;102367;;;4.16;88.16
62632;BME280;48703;51.248;-0.546;2023-01-29T04:37:26;102366;;;4.17;88.04
62632;BME280;48703;51.248;-0.546;2023-01-29T04:40:25;102364;;;4.18;88.12
62632;BME280;48703;51.248;-0.546;2023-01-29T04:43:27;102363;;;4.18;88.23
62632;BME280;48703;51.248;-0.546;2023-01-29T04:46:30;102358;;;4.17;88.21
62632;BME280;48703;51.248;-0.546;2023-01-29T04:49:31;102352;;;4.17;88.27
62632;BME280;48703;51.248;-0.546;2023-01-29T04:52:33;102346;;;4.18;88.14
62632;BME280;48703;51.248;-0.546;2023-01-29T04:55:35;102349;;;4.18;88.18
62632;BME280;48703;51.248;-0.546;2023-01-29T04:58:36;102349;;;4.17;88.29
62632;BME280;48703;51.248;-0.546;2023-01-29T05:01:38;102347;;;4.17;88.23
62632;BME280;48703;51.248;-0.546;2023-01-29T05:04:40;102344;;;4.16;88.21
62632;BME280;48703;51.248;-0.546;2023-01-29T05:07:42;102337;;;4.16;88.26
62632;BME280;48703;51.248;-0.546;2023-01-29T05:10:44;102333;;;4.15;88.37
62632;BME280;48703;51.248;-0.546;2023-01-29T05:13:45;102326;;;4.14;88.29
62632;BME280;48703;51.248;-0.546;2023-01-29T05:16:48;102318;;;4.13;88.33
62632;BME280;48703;51.248;-0.546;2023-01-29T05:19:49;102315;;;4.10;88.32
62632;BME280;48703;51.248;-0.546;2023-01-29T05:22:51;102321;;;4.09;88.28
62632;BME280;48703;51.248;-0.546;2023-01-29T05:25:53;102319;;;4.09;88.44
62632;BME280;48703;51.248;-0.546;2023-01-29T05:28:55;102317;;;4.08;88.48
62632;BME280;48703;51.248;-0.546;2023-01-29T05:31:57;102316;;;4.08;88.42
62632;BME280;48703;51.248;-0.546;2023-01-29T05:34:59;102312;;;4.07;88.32
62632;BME280;48703;51.248;-0.546;2023-01-29T05:38:01;102306;;;4.06;88.36
62632;BME280;48703;51.248;-0.546;2023-01-29T05:41:03;102298;;;4.03;88.44
62632;BME280;48703;51.248;-0.546;2023-01-29T05:44:04;102295;;;4.02;88.37
62632;BME280;48703;51.248;-0.546;2023-01-29T05:47:06;102299;;;4.00;88.50
62632;BME280;48703;51.248;-0.546;2023-01-29T05:50:10;102297;;;3.98;88.48
62632;BME280;48703;51.248;-0.546;2023-01-29T05:53:10;102299;;;3.99;88.44
62632;BME280;48703;51.248;-0.546;2023-01-29T05:56:12;102297;;;3.99;88.45
62632;BME280;48703;51.248;-0.546;2023-01-29T05:59:14;102294;;;3.99;88.49
62632;BME280;48703;51.248;-0.546;2023-01-29T06:02:16;102289;;;3.99;88.55
62632;BME280;48703;51.248;-0.546;2023-01-29T06:05:18;102293;;;3.99;88.54
62632;BME280;48703;51.248;-0.546;2023-01-29T06:08:20;102289;;;3.99;88.57
62632;BME280;48703;51.248;-0.546;2023-01-29T06:11:21;102281;;;3.99;88.55
62632;BME280;48703;51.248;-0.546;2023-01-29T06:14:23;102281;;;4.00;88.59
62632;BME280;48703;51.248;-0.546;2023-01-29T06:17:25;102277;;;4.01;88.44
62632;BME280;48703;51.248;-0.546;2023-01-29T06:20:27;102273;;;4.00;88.52
62632;BME280;48703;51.248;-0.546;2023-01-29T06:23:29;102272;;;4.00;88.57
62632;BME280;48703;51.248;-0.546;2023-01-29T06:26:31;102274;;;4.00;88.53
62632;BME280;48703;51.248;-0.546;2023-01-29T06:29:33;102276;;;4.00;88.52
62632;BME280;48703;51.248;-0.546;2023-01-29T06:32:35;102276;;;4.02;88.37
62632;BME280;48703;51.248;-0.546;2023-01-29T06:35:37;102272;;;4.01;88.47
62632;BME280;48703;51.248;-0.546;2023-01-29T06:38:39;102275;;;4.01;88.51
62632;BME280;48703;51.248;-0.546;2023-01-29T06:41:40;102279;;;4.01;88.45
62632;BME280;48703;51.248;-0.546;2023-01-29T06:44:43;102275;;;4.01;88.33
62632;BME280;48703;51.248;-0.546;2023-01-29T06:47:44;102274;;;4.02;88.29
62632;BME280;48703;51.248;-0.546;2023-01-29T06:50:46;102278;;;4.03;88.31
62632;BME280;48703;51.248;-0.546;2023-01-29T06:53:48;102281;;;4.02;88.26
62632;BME280;48703;51.248;-0.546;2023-01-29T06:56:50;102281;;;4.05;88.19
62632;BME280;48703;51.248;-0.546;2023-01-29T06:59:52;102278;;;4.06;88.14
62632;BME280;48703;51.248;-0.546;2023-01-29T07:02:54;102272;;;4.07;88.13
62632;BME280;48703;51.248;-0.546;2023-01-29T07:05:56;102272;;;4.07;88.16
62632;BME280;48703;51.248;-0.546;2023-01-29T07:08:57;102268;;;4.08;88.12
62632;BME280;48703;51.248;-0.546;2023-01-29T07:11:59;102266;;;4.08;88.15
62632;BME280;48703;51.248;-0.546;2023-01-29T07:15:02;102266;;;4.09;88.15
62632;BME280;48703;51.248;-0.546;2023-01-29T07:18:03;102267;;;4.10;88.13
62632;BME280;48703;51.248;-0.546;2023-01-29T07:21:05;102265;;;4.11;88.05
62632;BME280;48703;51.248;-0.546;2023-01-29T07:24:07;102260;;;4.11;88.16
62632;BME280;48703;51.248;-0.546;2023-01-29T07:27:09;102253;;;4.12;88.12
62632;BME280;48703;51.248;-0.546;2023-01-29T07:30:11;102249;;;4.12;88.09
62632;BME280;48703;51.248;-0.546;2023-01-29T07:33:13;102248;;;4.12;88.09
62632;BME280;48703;51.248;-0.546;2023-01-29T07:36:15;102249;;;4.12;88.10
62632;BME280;48703;51.248;-0.546;2023-01-29T07:39:17;102249;;;4.11;88.19
62632;BME280;48703;51.248;-0.546;2023-01-29T07:42:18;102249;;;4.11;88.29
62632;BME280;48703;51.248;-0.546;2023-01-29T07:45:20;102252;;;4.11;88.37
62632;BME280;48703;51.248;-0.546;2023-01-29T07:48:22;102257;;;4.13;88.48
62632;BME280;48703;51.248;-0.546;2023-01-29T07:51:24;102249;;;4.14;88.58
62632;BME280;48703;51.248;-0.546;2023-01-29T07:54:26;102252;;;4.15;88.59
62632;BME280;48703;51.248;-0.546;2023-01-29T07:57:28;102252;;;4.17;88.69
62632;BME280;48703;51.248;-0.546;2023-01-29T08:00:30;102249;;;4.19;88.65
62632;BME280;48703;51.248;-0.546;2023-01-29T08:03:32;102248;;;4.20;88.67
62632;BME280;48703;51.248;-0.546;2023-01-29T08:06:34;102248;;;4.22;88.72
62632;BME280;48703;51.248;-0.546;2023-01-29T08:09:35;102245;;;4.24;88.71
62632;BME280;48703;51.248;-0.546;2023-01-29T08:12:37;102244;;;4.25;88.74
62632;BME280;48703;51.248;-0.546;2023-01-29T08:15:41;102248;;;4.27;88.70
62632;BME280;48703;51.248;-0.546;2023-01-29T08:18:41;102249;;;4.30;88.82
62632;BME280;48703;51.248;-0.546;2023-01-29T08:21:43;102252;;;4.32;88.81
62632;BME280;48703;51.248;-0.546;2023-01-29T08:24:45;102251;;;4.34;88.76
62632;BME280;48703;51.248;-0.546;2023-01-29T08:27:47;102249;;;4.36;88.97
62632;BME280;48703;51.248;-0.546;2023-01-29T08:30:49;102248;;;4.39;88.80
62632;BME280;48703;51.248;-0.546;2023-01-29T08:33:52;102247;;;4.43;88.73
62632;BME280;48703;51.248;-0.546;2023-01-29T08:36:52;102248;;;4.48;88.82
62632;BME280;48703;51.248;-0.546;2023-01-29T08:39:54;102246;;;4.51;88.85
62632;BME280;48703;51.248;-0.546;2023-01-29T08:42:57;102246;;;4.53;88.91
62632;BME280;48703;51.248;-0.546;2023-01-29T08:45:58;102245;;;4.56;89.01
62632;BME280;48703;51.248;-0.546;2023-01-29T08:49:00;102245;;;4.58;89.18
62632;BME280;48703;51.248;-0.546;2023-01-29T08:52:02;102243;;;4.60;89.10
62632;BME280;48703;51.248;-0.546;2023-01-29T08:55:04;102242;;;4.62;89.13
62632;BME280;48703;51.248;-0.546;2023-01-29T08:58:06;102239;;;4.64;89.30
62632;BME280;48703;51.248;-0.546;2023-01-29T09:01:08;102237;;;4.65;89.21
62632;BME280;48703;51.248;-0.546;2023-01-29T09:04:10;102235;;;4.66;89.28
62632;BME280;48703;51.248;-0.546;2023-01-29T09:07:11;102235;;;4.68;89.53
62632;BME280;48703;51.248;-0.546;2023-01-29T09:10:14;102233;;;4.68;89.51
62632;BME280;48703;51.248;-0.546;2023-01-29T09:13:15;102233;;;4.70;89.39
62632;BME280;48703;51.248;-0.546;2023-01-29T09:16:17;102235;;;4.72;89.34
62632;BME280;48703;51.248;-0.546;2023-01-29T09:19:19;102235;;;4.74;89.39
62632;BME280;48703;51.248;-0.546;2023-01-29T09:22:21;102235;;;4.76;89.46
62632;BME280;48703;51.248;-0.546;2023-01-29T09:25:23;102231;;;4.79;89.53
62632;BME280;48703;51.248;-0.546;2023-01-29T09:28:25;102228;;;4.82;89.48
62632;BME280;48703;51.248;-0.546;2023-01-29T09:31:27;102225;;;4.85;89.46
62632;BME280;48703;51.248;-0.546;2023-01-29T09:34:29;102227;;;4.88;89.60
62632;BME280;48703;51.248;-0.546;2023-01-29T09:37:30;102226;;;4.91;89.77
62632;BME280;48703;51.248;-0.546;2023-01-29T09:40:34;102229;;;4.94;89.63
62632;BME280;48703;51.248;-0.546;2023-01-29T09:43:39;102229;;;4.97;89.58
62632;BME280;48703;51.248;-0.546;2023-01-29T09:46:37;102228;;;5.01;89.53
62632;BME280;48703;51.248;-0.546;2023-01-29T09:49:38;102223;;;5.04;89.62
62632;BME280;48703;51.248;-0.546;2023-01-29T09:52:41;102218;;;5.09;89.57
62632;BME280;48703;51.248;-0.546;2023-01-29T09:55:42;102216;;;5.13;89.74
62632;BME280;48703;51.248;-0.546;2023-01-29T09:58:44;102212;;;5.17;89.70
62632;BME280;48703;51.248;-0.546;2023-01-29T10:01:49;102212;;;5.21;89.64
62632;BME280;48703;51.248;-0.546;2023-01-29T10:04:58;102211;;;5.25;89.53
62632;BME280;48703;51.248;-0.546;2023-01-29T10:07:55;102213;;;5.29;89.50
62632;BME280;48703;51.248;-0.546;2023-01-29T10:10:53;102215;;;5.33;89.49
62632;BME280;48703;51.248;-0.546;2023-01-29T10:13:55;102220;;;5.38;89.56
62632;BME280;48703;51.248;-0.546;2023-01-29T10:16:59;102217;;;5.42;89.73
62632;BME280;48703;51.248;-0.546;2023-01-29T10:20:02;102213;;;5.45;89.77
62632;BME280;48703;51.248;-0.546;2023-01-29T10:23:02;102215;;;5.49;89.92
62632;BME280;48703;51.248;-0.546;2023-01-29T10:26:01;102214;;;5.53;89.83
62632;BME280;48703;51.248;-0.546;2023-01-29T10:29:04;102212;;;5.57;90.34
62632;BME280;48703;51.248;-0.546;2023-01-29T10:32:05;102210;;;5.61;89.93
62632;BME280;48703;51.248;-0.546;2023-01-29T10:35:12;102209;;;5.65;90.01
62632;BME280;48703;51.248;-0.546;2023-01-29T10:38:14;102207;;;5.69;90.36
62632;BME280;48703;51.248;-0.546;2023-01-29T10:41:14;102202;;;5.74;90.53
62632;BME280;48703;51.248;-0.546;2023-01-29T10:44:16;102202;;;5.79;90.46
62632;BME280;48703;51.248;-0.546;2023-01-29T10:47:25;102202;;;5.83;90.23
62632;BME280;48703;51.248;-0.546;2023-01-29T10:50:17;102198;;;5.87;90.25
62632;BME280;48703;51.248;-0.546;2023-01-29T10:53:21;102191;;;5.91;90.11
62632;BME280;48703;51.248;-0.546;2023-01-29T10:56:23;102187;;;5.94;90.16
62632;BME280;48703;51.248;-0.546;2023-01-29T10:59:26;102181;;;5.98;89.96
62632;BME280;48703;51.248;-0.546;2023-01-29T11:02:24;102173;;;6.02;89.94
62632;BME280;48703;51.248;-0.546;2023-01-29T11:05:28;102167;;;6.05;89.75
62632;BME280;48703;51.248;-0.546;2023-01-29T11:08:28;102163;;;6.09;89.87
62632;BME280;48703;51.248;-0.546;2023-01-29T11:11:30;102159;;;6.12;89.80
62632;BME280;48703;51.248;-0.546;2023-01-29T11:14:32;102153;;;6.15;89.87
62632;BME280;48703;51.248;-0.546;2023-01-29T11:17:33;102148;;;6.18;89.88
62632;BME280;48703;51.248;-0.546;2023-01-29T11:20:35;102142;;;6.20;89.77
62632;BME280;48703;51.248;-0.546;2023-01-29T11:23:37;102136;;;6.20;89.71
62632;BME280;48703;51.248;-0.546;2023-01-29T11:26:39;102134;;;6.21;89.84
62632;BME280;48703;51.248;-0.546;2023-01-29T11:29:42;102128;;;6.22;90.22
62632;BME280;48703;51.248;-0.546;2023-01-29T11:32:43;102124;;;6.22;90.58
62632;BME280;48703;51.248;-0.546;2023-01-29T11:35:45;102121;;;6.25;91.22
62632;BME280;48703;51.248;-0.546;2023-01-29T11:38:46;102119;;;6.27;91.29
62632;BME280;48703;51.248;-0.546;2023-01-29T11:41:50;102116;;;6.27;91.49
62632;BME280;48703;51.248;-0.546;2023-01-29T11:44:50;102113;;;6.27;91.95
62632;BME280;48703;51.248;-0.546;2023-01-29T11:47:52;102107;;;6.28;92.24
62632;BME280;48703;51.248;-0.546;2023-01-29T11:50:54;102100;;;6.28;92.41
62632;BME280;48703;51.248;-0.546;2023-01-29T11:53:56;102097;;;6.29;92.54
62632;BME280;48703;51.248;-0.546;2023-01-29T11:56:58;102092;;;6.30;92.41
62632;BME280;48703;51.248;-0.546;2023-01-29T12:00:00;102086;;;6.30;92.59
62632;BME280;48703;51.248;-0.546;2023-01-29T12:03:03;102082;;;6.30;92.86
62632;BME280;48703;51.248;-0.546;2023-01-29T12:06:04;102075;;;6.32;93.29
62632;BME280;48703;51.248;-0.546;2023-01-29T12:09:08;102066;;;6.36;93.08
62632;BME280;48703;51.248;-0.546;2023-01-29T12:12:15;102066;;;6.39;93.14
62632;BME280;48703;51.248;-0.546;2023-01-29T12:15:20;102060;;;6.44;93.06
62632;BME280;48703;51.248;-0.546;2023-01-29T12:18:13;102052;;;6.49;93.13
62632;BME280;48703;51.248;-0.546;2023-01-29T12:21:14;102045;;;6.53;93.11
62632;BME280;48703;51.248;-0.546;2023-01-29T12:24:21;102041;;;6.57;92.83
62632;BME280;48703;51.248;-0.546;2023-01-29T12:27:18;102032;;;6.60;92.69
62632;BME280;48703;51.248;-0.546;2023-01-29T12:30:19;102018;;;6.62;92.51
62632;BME280;48703;51.248;-0.546;2023-01-29T12:33:23;102012;;;6.65;92.69
62632;BME280;48703;51.248;-0.546;2023-01-29T12:36:23;102003;;;6.67;92.55
62632;BME280;48703;51.248;-0.546;2023-01-29T12:39:24;101998;;;6.69;92.55
62632;BME280;48703;51.248;-0.546;2023-01-29T12:42:26;101987;;;6.72;92.81
62632;BME280;48703;51.248;-0.546;2023-01-29T12:45:28;101986;;;6.77;93.05
62632;BME280;48703;51.248;-0.546;2023-01-29T12:48:31;101987;;;6.81;92.74
62632;BME280;48703;51.248;-0.546;2023-01-29T12:51:32;101982;;;6.83;92.80
62632;BME280;48703;51.248;-0.546;2023-01-29T12:54:35;101979;;;6.85;93.04
62632;BME280;48703;51.248;-0.546;2023-01-29T12:57:37;101974;;;6.87;93.10
62632;BME280;48703;51.248;-0.546;2023-01-29T13:00:38;101973;;;6.88;93.43
62632;BME280;48703;51.248;-0.546;2023-01-29T13:03:42;101967;;;6.89;93.62
62632;BME280;48703;51.248;-0.546;2023-01-29T13:06:43;101959;;;6.90;93.39
62632;BME280;48703;51.248;-0.546;2023-01-29T13:09:44;101942;;;6.90;93.38
62632;BME280;48703;51.248;-0.546;2023-01-29T13:12:47;101932;;;6.90;93.35
62632;BME280;48703;51.248;-0.546;2023-01-29T13:15:47;101926;;;6.92;93.33
62632;BME280;48703;51.248;-0.546;2023-01-29T13:18:49;101916;;;6.96;93.22
62632;BME280;48703;51.248;-0.546;2023-01-29T13:21:51;101914;;;7.00;93.33
62632;BME280;48703;51.248;-0.546;2023-01-29T13:24:53;101909;;;7.03;93.36
62632;BME280;48703;51.248;-0.546;2023-01-29T13:27:55;101902;;;7.07;93.09
62632;BME280;48703;51.248;-0.546;2023-01-29T13:31:16;101899;;;7.08;93.14
62632;BME280;48703;51.248;-0.546;2023-01-29T13:34:01;101895;;;7.10;93.12
62632;BME280;48703;51.248;-0.546;2023-01-29T13:37:01;101883;;;7.12;93.34
62632;BME280;48703;51.248;-0.546;2023-01-29T13:40:04;101879;;;7.15;93.07
62632;BME280;48703;51.248;-0.546;2023-01-29T13:43:04;101872;;;7.20;93.39
62632;BME280;48703;51.248;-0.546;2023-01-29T13:46:07;101866;;;7.23;93.26
62632;BME280;48703;51.248;-0.546;2023-01-29T13:49:19;101863;;;7.27;93.07
62632;BME280;48703;51.248;-0.546;2023-01-29T13:52:14;101867;;;7.33;92.96
62632;BME280;48703;51.248;-0.546;2023-01-29T13:55:19;101864;;;7.36;93.00
62632;BME280;48703;51.248;-0.546;2023-01-29T13:58:14;101860;;;7.40;92.77
62632;BME280;48703;51.248;-0.546;2023-01-29T14:01:16;101857;;;7.44;92.66
62632;BME280;48703;51.248;-0.546;2023-01-29T14:04:21;101852;;;7.49;92.68
62632;BME280;48703;51.248;-0.546;2023-01-29T14:07:51;101848;;;7.52;92.54
62632;BME280;48703;51.248;-0.546;2023-01-29T14:10:22;101847;;;7.55;92.46
62632;BME280;48703;51.248;-0.546;2023-01-29T14:13:24;101844;;;7.56;92.41
62632;BME280;48703;51.248;-0.546;2023-01-29T14:16:26;101846;;;7.57;92.60
62632;BME280;48703;51.248;-0.546;2023-01-29T14:19:27;101845;;;7.59;92.45
62632;BME280;48703;51.248;-0.546;2023-01-29T14:22:29;101842;;;7.61;92.71
62632;BME280;48703;51.248;-0.546;2023-01-29T14:25:31;101838;;;7.61;92.58
62632;BME280;48703;51.248;-0.546;2023-01-29T14:28:33;101834;;;7.61;92.87
62632;BME280;48703;51.248;-0.546;2023-01-29T14:31:36;101827;;;7.62;93.19
62632;BME280;48703;51.248;-0.546;2023-01-29T14:34:40;101828;;;7.65;93.02
62632;BME280;48703;51.248;-0.546;2023-01-29T14:37:38;101825;;;7.69;92.90
62632;BME280;48703;51.248;-0.546;2023-01-29T14:40:40;101822;;;7.74;92.84
62632;BME280;48703;51.248;-0.546;2023-01-29T14:43:42;101816;;;7.77;92.53
62632;BME280;48703;51.248;-0.546;2023-01-29T14:46:44;101811;;;7.79;92.73
62632;BME280;48703;51.248;-0.546;2023-01-29T14:49:48;101816;;;7.81;92.59
62632;BME280;48703;51.248;-0.546;2023-01-29T14:52:48;101814;;;7.83;92.52
62632;BME280;48703;51.248;-0.546;2023-01-29T14:55:51;101813;;;7.85;92.30
62632;BME280;48703;51.248;-0.546;2023-01-29T14:58:52;101806;;;7.86;92.22
62632;BME280;48703;51.248;-0.546;2023-01-29T15:01:54;101803;;;7.88;92.33
62632;BME280;48703;51.248;-0.546;2023-01-29T15:04:56;101796;;;7.89;92.28
62632;BME280;48703;51.248;-0.546;2023-01-29T15:07:59;101792;;;7.90;92.07
62632;BME280;48703;51.248;-0.546;2023-01-29T15:11:01;101784;;;7.91;91.98
62632;BME280;48703;51.248;-0.546;2023-01-29T15:14:04;101778;;;7.92;91.94
62632;BME280;48703;51.248;-0.546;2023-01-29T15:17:21;101778;;;7.93;91.86
62632;BME280;48703;51.248;-0.546;2023-01-29T15:20:23;101775;;;7.93;91.64
62632;BME280;48703;51.248;-0.546;2023-01-29T15:23:22;101773;;;7.93;91.59
62632;BME280;48703;51.248;-0.546;2023-01-29T15:26:09;101777;;;7.93;91.55
62632;BME280;48703;51.248;-0.546;2023-01-29T15:29:18;101774;;;7.94;91.63
62632;BME280;48703;51.248;-0.546;2023-01-29T15:32:14;101773;;;7.95;91.52
62632;BME280;48703;51.248;-0.546;2023-01-29T15:35:18;101776;;;7.96;91.46
62632;BME280;48703;51.248;-0.546;2023-01-29T15:38:18;101782;;;7.97;91.37
62632;BME280;48703;51.248;-0.546;2023-01-29T15:41:19;101783;;;7.97;91.28
62632;BME280;48703;51.248;-0.546;2023-01-29T15:44:21;101788;;;7.97;91.30
62632;BME280;48703;51.248;-0.546;2023-01-29T15:47:23;101792;;;7.96;91.27
62632;BME280;48703;51.248;-0.546;2023-01-29T15:50:24;101789;;;7.97;91.50
62632;BME280;48703;51.248;-0.546;2023-01-29T15:53:29;101787;;;7.97;91.60
62632;BME280;48703;51.248;-0.546;2023-01-29T15:56:29;101787;;;7.97;91.60
62632;BME280;48703;51.248;-0.546;2023-01-29T15:59:31;101786;;;7.98;91.73
62632;BME280;48703;51.248;-0.546;2023-01-29T16:02:35;101784;;;7.98;91.57
62632;BME280;48703;51.248;-0.546;2023-01-29T16:05:33;101784;;;7.98;91.46
62632;BME280;48703;51.248;-0.546;2023-01-29T16:08:35;101779;;;7.98;91.72
62632;BME280;48703;51.248;-0.546;2023-01-29T16:11:37;101780;;;7.97;91.64
62632;BME280;48703;51.248;-0.546;2023-01-29T16:14:39;101776;;;7.97;91.78
62632;BME280;48703;51.248;-0.546;2023-01-29T16:17:41;101777;;;7.96;91.74
62632;BME280;48703;51.248;-0.546;2023-01-29T16:20:43;101777;;;7.95;91.75
62632;BME280;48703;51.248;-0.546;2023-01-29T16:23:47;101769;;;7.94;91.86
62632;BME280;48703;51.248;-0.546;2023-01-29T16:26:47;101766;;;7.92;91.93
62632;BME280;48703;51.248;-0.546;2023-01-29T16:29:49;101763;;;7.91;92.08